sensor_id;sensor_type;location;lat;lon;timestamp;P1;durP1;ratioP1;P2;durP2;ratioP2
11504;SDS011;5809;53.262;10.408;2023-05-23T00:00:50;19.17;;;16.92;;
11504;SDS011;5809;53.262;10.408;2023-05-23T00:03:16;17.00;;;15.40;;
11504;SDS011;5809;53.262;10.408;2023-05-23T00:05:48;17.20;;;15.50;;
11504;SDS011;5809;53.262;10.408;2023-05-23T00:08:15;17.75;;;15.93;;
11504;SDS011;5809;53.262;10.408;2023-05-23T00:10:42;16.95;;;15.38;;
11504;SDS011;5809;53.262;10.408;2023-05-23T00:13:10;19.55;;;16.80;;
11504;SDS011;5809;53.262;10.408;2023-05-23T00:15:38;21.48;;;16.17;;
11504;SDS011;5809;53.262;10.408;2023-05-23T00:18:06;15.88;;;14.25;;
11504;SDS011;5809;53.262;10.408;2023-05-23T00:20:35;15.35;;;13.85;;
11504;SDS011;5809;53.262;10.408;2023-05-23T00:23:06;16.10;;;14.35;;
11504;SDS011;5809;53.262;10.408;2023-05-23T00:25:34;15.13;;;13.73;;
11504;SDS011;5809;53.262;10.408;2023-05-23T00:28:01;15.25;;;13.43;;
11504;SDS011;5809;53.262;10.408;2023-05-23T00:30:29;14.82;;;13.27;;
11504;SDS011;5809;53.262;10.408;2023-05-23T00:32:57;15.05;;;13.73;;
11504;SDS011;5809;53.262;10.408;2023-05-23T00:35:24;15.43;;;13.70;;
11504;SDS011;5809;53.262;10.408;2023-05-23T00:37:51;16.17;;;13.57;;
11504;SDS011;5809;53.262;10.408;2023-05-23T00:40:20;15.80;;;14.30;;
11504;SDS011;5809;53.262;10.408;2023-05-23T00:42:48;16.77;;;15.07;;
11504;SDS011;5809;53.262;10.408;2023-05-23T00:45:15;18.90;;;14.52;;
11504;SDS011;5809;53.262;10.408;2023-05-23T00:47:42;16.85;;;15.23;;
11504;SDS011;5809;53.262;10.408;2023-05-23T00:50:11;17.42;;;15.15;;
11504;SDS011;5809;53.262;10.408;2023-05-23T00:52:39;17.27;;;15.57;;
11504;SDS011;5809;53.262;10.408;2023-05-23T00:55:07;16.90;;;15.32;;
11504;SDS011;5809;53.262;10.408;2023-05-23T00:57:36;18.17;;;16.48;;
11504;SDS011;5809;53.262;10.408;2023-05-23T01:00:05;17.33;;;15.73;;
11504;SDS011;5809;53.262;10.408;2023-05-23T01:02:34;18.13;;;16.13;;
11504;SDS011;5809;53.262;10.408;2023-05-23T01:05:05;16.80;;;15.10;;
11504;SDS011;5809;53.262;10.408;2023-05-23T01:07:32;17.17;;;15.57;;
11504;SDS011;5809;53.262;10.408;2023-05-23T01:10:00;17.23;;;15.52;;
11504;SDS011;5809;53.262;10.408;2023-05-23T01:12:28;17.92;;;16.20;;
11504;SDS011;5809;53.262;10.408;2023-05-23T01:15:07;18.92;;;17.02;;
11504;SDS011;5809;53.262;10.408;2023-05-23T01:17:38;17.45;;;15.65;;
11504;SDS011;5809;53.262;10.408;2023-05-23T01:20:11;17.92;;;16.20;;
11504;SDS011;5809;53.262;10.408;2023-05-23T01:22:48;17.33;;;15.63;;
11504;SDS011;5809;53.262;10.408;2023-05-23T01:25:27;19.73;;;16.02;;
11504;SDS011;5809;53.262;10.408;2023-05-23T01:28:14;18.98;;;16.02;;
11504;SDS011;5809;53.262;10.408;2023-05-23T01:30:44;17.27;;;15.52;;
11504;SDS011;5809;53.262;10.408;2023-05-23T01:33:12;17.85;;;15.98;;
11504;SDS011;5809;53.262;10.408;2023-05-23T01:35:41;21.15;;;15.45;;
11504;SDS011;5809;53.262;10.408;2023-05-23T01:38:08;18.10;;;16.33;;
11504;SDS011;5809;53.262;10.408;2023-05-23T01:40:35;17.60;;;15.93;;
11504;SDS011;5809;53.262;10.408;2023-05-23T01:43:02;18.63;;;15.82;;
11504;SDS011;5809;53.262;10.408;2023-05-23T01:45:31;17.42;;;15.73;;
11504;SDS011;5809;53.262;10.408;2023-05-23T01:47:58;17.67;;;15.95;;
11504;SDS011;5809;53.262;10.408;2023-05-23T01:50:27;17.38;;;15.70;;
11504;SDS011;5809;53.262;10.408;2023-05-23T01:52:55;18.33;;;16.52;;
11504;SDS011;5809;53.262;10.408;2023-05-23T01:55:22;18.50;;;16.55;;
11504;SDS011;5809;53.262;10.408;2023-05-23T01:57:51;19.05;;;17.05;;
11504;SDS011;5809;53.262;10.408;2023-05-23T02:00:20;20.60;;;18.35;;
11504;SDS011;5809;53.262;10.408;2023-05-23T02:02:49;20.17;;;18.15;;
11504;SDS011;5809;53.262;10.408;2023-05-23T02:05:16;22.33;;;20.00;;
11504;SDS011;5809;53.262;10.408;2023-05-23T02:07:43;25.63;;;22.75;;
11504;SDS011;5809;53.262;10.408;2023-05-23T02:10:10;28.85;;;25.75;;
11504;SDS011;5809;53.262;10.408;2023-05-23T02:12:37;30.45;;;27.15;;
11504;SDS011;5809;53.262;10.408;2023-05-23T02:15:04;35.00;;;30.27;;
11504;SDS011;5809;53.262;10.408;2023-05-23T02:17:32;37.53;;;31.30;;
11504;SDS011;5809;53.262;10.408;2023-05-23T02:20:01;38.95;;;32.67;;
11504;SDS011;5809;53.262;10.408;2023-05-23T02:22:28;37.00;;;33.03;;
11504;SDS011;5809;53.262;10.408;2023-05-23T02:24:54;41.80;;;36.05;;
11504;SDS011;5809;53.262;10.408;2023-05-23T02:27:21;40.97;;;34.92;;
11504;SDS011;5809;53.262;10.408;2023-05-23T02:29:49;48.45;;;36.30;;
11504;SDS011;5809;53.262;10.408;2023-05-23T02:32:15;38.83;;;34.63;;
11504;SDS011;5809;53.262;10.408;2023-05-23T02:34:42;42.85;;;38.28;;
11504;SDS011;5809;53.262;10.408;2023-05-23T02:37:12;45.03;;;39.90;;
11504;SDS011;5809;53.262;10.408;2023-05-23T02:39:39;43.40;;;38.78;;
11504;SDS011;5809;53.262;10.408;2023-05-23T02:42:06;45.50;;;40.50;;
11504;SDS011;5809;53.262;10.408;2023-05-23T02:44:33;46.95;;;39.63;;
11504;SDS011;5809;53.262;10.408;2023-05-23T02:47:00;47.70;;;39.90;;
11504;SDS011;5809;53.262;10.408;2023-05-23T02:49:26;46.50;;;40.00;;
11504;SDS011;5809;53.262;10.408;2023-05-23T02:51:53;49.00;;;43.63;;
11504;SDS011;5809;53.262;10.408;2023-05-23T02:54:22;50.72;;;43.35;;
11504;SDS011;5809;53.262;10.408;2023-05-23T02:56:49;55.30;;;46.35;;
11504;SDS011;5809;53.262;10.408;2023-05-23T02:59:16;53.90;;;43.97;;
11504;SDS011;5809;53.262;10.408;2023-05-23T03:01:43;51.28;;;45.28;;
11504;SDS011;5809;53.262;10.408;2023-05-23T03:04:10;49.58;;;43.97;;
11504;SDS011;5809;53.262;10.408;2023-05-23T03:06:37;58.17;;;47.30;;
11504;SDS011;5809;53.262;10.408;2023-05-23T03:09:06;56.25;;;47.22;;
11504;SDS011;5809;53.262;10.408;2023-05-23T03:11:35;59.75;;;45.42;;
11504;SDS011;5809;53.262;10.408;2023-05-23T03:14:02;60.33;;;48.08;;
11504;SDS011;5809;53.262;10.408;2023-05-23T03:16:29;62.70;;;47.92;;
11504;SDS011;5809;53.262;10.408;2023-05-23T03:18:56;65.43;;;48.10;;
11504;SDS011;5809;53.262;10.408;2023-05-23T03:21:23;55.40;;;45.33;;
11504;SDS011;5809;53.262;10.408;2023-05-23T03:23:50;55.97;;;44.95;;
11504;SDS011;5809;53.262;10.408;2023-05-23T03:26:17;56.22;;;46.63;;
11504;SDS011;5809;53.262;10.408;2023-05-23T03:28:47;58.15;;;46.70;;
11504;SDS011;5809;53.262;10.408;2023-05-23T03:31:15;59.72;;;45.67;;
11504;SDS011;5809;53.262;10.408;2023-05-23T03:33:42;55.67;;;45.13;;
11504;SDS011;5809;53.262;10.408;2023-05-23T03:36:09;55.22;;;43.83;;
11504;SDS011;5809;53.262;10.408;2023-05-23T03:38:35;55.05;;;42.95;;
11504;SDS011;5809;53.262;10.408;2023-05-23T03:41:02;51.50;;;43.33;;
11504;SDS011;5809;53.262;10.408;2023-05-23T03:43:29;55.85;;;44.95;;
11504;SDS011;5809;53.262;10.408;2023-05-23T03:45:58;56.25;;;43.38;;
11504;SDS011;5809;53.262;10.408;2023-05-23T03:48:24;59.30;;;45.00;;
11504;SDS011;5809;53.262;10.408;2023-05-23T03:50:51;57.58;;;43.28;;
11504;SDS011;5809;53.262;10.408;2023-05-23T03:53:18;54.25;;;43.97;;
11504;SDS011;5809;53.262;10.408;2023-05-23T03:55:45;59.22;;;43.53;;
11504;SDS011;5809;53.262;10.408;2023-05-23T03:58:12;53.08;;;42.05;;
11504;SDS011;5809;53.262;10.408;2023-05-23T04:00:39;51.75;;;41.67;;
11504;SDS011;5809;53.262;10.408;2023-05-23T04:03:07;50.90;;;41.42;;
11504;SDS011;5809;53.262;10.408;2023-05-23T04:05:35;50.05;;;38.60;;
11504;SDS011;5809;53.262;10.408;2023-05-23T04:08:02;49.05;;;38.83;;
11504;SDS011;5809;53.262;10.408;2023-05-23T04:10:29;45.38;;;36.90;;
11504;SDS011;5809;53.262;10.408;2023-05-23T04:12:56;41.83;;;33.78;;
11504;SDS011;5809;53.262;10.408;2023-05-23T04:15:23;41.70;;;33.70;;
11504;SDS011;5809;53.262;10.408;2023-05-23T04:17:52;42.15;;;33.97;;
11504;SDS011;5809;53.262;10.408;2023-05-23T04:20:21;39.88;;;32.80;;
11504;SDS011;5809;53.262;10.408;2023-05-23T04:22:48;43.22;;;33.17;;
11504;SDS011;5809;53.262;10.408;2023-05-23T04:25:15;42.28;;;31.88;;
11504;SDS011;5809;53.262;10.408;2023-05-23T04:27:44;42.97;;;32.03;;
11504;SDS011;5809;53.262;10.408;2023-05-23T04:30:11;41.92;;;32.42;;
11504;SDS011;5809;53.262;10.408;2023-05-23T04:32:41;40.85;;;31.88;;
11504;SDS011;5809;53.262;10.408;2023-05-23T04:35:08;43.50;;;32.00;;
11504;SDS011;5809;53.262;10.408;2023-05-23T04:37:37;37.28;;;31.23;;
11504;SDS011;5809;53.262;10.408;2023-05-23T04:40:04;43.50;;;31.52;;
11504;SDS011;5809;53.262;10.408;2023-05-23T04:42:32;41.88;;;32.22;;
11504;SDS011;5809;53.262;10.408;2023-05-23T04:45:00;36.80;;;30.90;;
11504;SDS011;5809;53.262;10.408;2023-05-23T04:47:27;37.03;;;28.98;;
11504;SDS011;5809;53.262;10.408;2023-05-23T04:49:58;35.00;;;29.80;;
11504;SDS011;5809;53.262;10.408;2023-05-23T04:52:26;35.70;;;29.15;;
11504;SDS011;5809;53.262;10.408;2023-05-23T04:54:56;33.80;;;27.50;;
11504;SDS011;5809;53.262;10.408;2023-05-23T04:57:23;34.13;;;27.63;;
11504;SDS011;5809;53.262;10.408;2023-05-23T04:59:50;34.83;;;27.90;;
11504;SDS011;5809;53.262;10.408;2023-05-23T05:02:18;33.13;;;27.33;;
11504;SDS011;5809;53.262;10.408;2023-05-23T05:04:45;34.20;;;29.13;;
11504;SDS011;5809;53.262;10.408;2023-05-23T05:07:12;42.33;;;27.73;;
11504;SDS011;5809;53.262;10.408;2023-05-23T05:09:38;35.70;;;27.38;;
11504;SDS011;5809;53.262;10.408;2023-05-23T05:12:07;30.23;;;25.42;;
11504;SDS011;5809;53.262;10.408;2023-05-23T05:14:34;29.67;;;26.00;;
11504;SDS011;5809;53.262;10.408;2023-05-23T05:17:01;29.58;;;24.30;;
11504;SDS011;5809;53.262;10.408;2023-05-23T05:19:28;29.20;;;24.35;;
11504;SDS011;5809;53.262;10.408;2023-05-23T05:21:55;27.40;;;22.80;;
11504;SDS011;5809;53.262;10.408;2023-05-23T05:24:24;27.38;;;23.45;;
11504;SDS011;5809;53.262;10.408;2023-05-23T05:26:51;28.02;;;23.10;;
11504;SDS011;5809;53.262;10.408;2023-05-23T05:29:20;26.30;;;23.50;;
11504;SDS011;5809;53.262;10.408;2023-05-23T05:31:47;27.48;;;23.67;;
11504;SDS011;5809;53.262;10.408;2023-05-23T05:34:14;29.48;;;23.23;;
11504;SDS011;5809;53.262;10.408;2023-05-23T05:36:41;29.38;;;22.98;;
11504;SDS011;5809;53.262;10.408;2023-05-23T05:39:11;27.48;;;22.98;;
11504;SDS011;5809;53.262;10.408;2023-05-23T05:41:39;27.40;;;23.13;;
11504;SDS011;5809;53.262;10.408;2023-05-23T05:44:06;27.58;;;24.02;;
11504;SDS011;5809;53.262;10.408;2023-05-23T05:46:35;30.45;;;23.83;;
11504;SDS011;5809;53.262;10.408;2023-05-23T05:49:02;29.17;;;23.52;;
11504;SDS011;5809;53.262;10.408;2023-05-23T05:51:29;28.40;;;23.85;;
11504;SDS011;5809;53.262;10.408;2023-05-23T05:53:56;30.27;;;24.42;;
11504;SDS011;5809;53.262;10.408;2023-05-23T05:56:23;26.80;;;23.90;;
11504;SDS011;5809;53.262;10.408;2023-05-23T05:58:52;26.27;;;23.30;;
11504;SDS011;5809;53.262;10.408;2023-05-23T06:01:19;28.55;;;24.75;;
11504;SDS011;5809;53.262;10.408;2023-05-23T06:03:47;28.58;;;24.08;;
11504;SDS011;5809;53.262;10.408;2023-05-23T06:06:14;29.30;;;25.60;;
11504;SDS011;5809;53.262;10.408;2023-05-23T06:08:41;30.50;;;24.85;;
11504;SDS011;5809;53.262;10.408;2023-05-23T06:11:08;32.63;;;25.75;;
11504;SDS011;5809;53.262;10.408;2023-05-23T06:13:36;33.38;;;26.52;;
11504;SDS011;5809;53.262;10.408;2023-05-23T06:16:03;35.70;;;26.65;;
11504;SDS011;5809;53.262;10.408;2023-05-23T06:18:31;34.97;;;26.67;;
11504;SDS011;5809;53.262;10.408;2023-05-23T06:20:59;36.25;;;27.50;;
11504;SDS011;5809;53.262;10.408;2023-05-23T06:23:26;34.88;;;26.95;;
11504;SDS011;5809;53.262;10.408;2023-05-23T06:25:53;36.70;;;25.98;;
11504;SDS011;5809;53.262;10.408;2023-05-23T06:28:20;33.72;;;25.23;;
11504;SDS011;5809;53.262;10.408;2023-05-23T06:30:47;36.33;;;25.90;;
11504;SDS011;5809;53.262;10.408;2023-05-23T06:33:14;33.03;;;25.92;;
11504;SDS011;5809;53.262;10.408;2023-05-23T06:35:41;37.90;;;26.77;;
11504;SDS011;5809;53.262;10.408;2023-05-23T06:38:10;38.92;;;26.75;;
11504;SDS011;5809;53.262;10.408;2023-05-23T06:40:37;35.72;;;26.40;;
11504;SDS011;5809;53.262;10.408;2023-05-23T06:43:03;45.70;;;26.92;;
11504;SDS011;5809;53.262;10.408;2023-05-23T06:45:30;35.47;;;25.58;;
11504;SDS011;5809;53.262;10.408;2023-05-23T06:47:59;38.65;;;27.02;;
11504;SDS011;5809;53.262;10.408;2023-05-23T06:50:26;38.83;;;26.58;;
11504;SDS011;5809;53.262;10.408;2023-05-23T06:52:53;36.15;;;26.55;;
11504;SDS011;5809;53.262;10.408;2023-05-23T06:55:21;39.78;;;27.98;;
11504;SDS011;5809;53.262;10.408;2023-05-23T06:57:48;40.80;;;28.40;;
11504;SDS011;5809;53.262;10.408;2023-05-23T07:00:16;40.17;;;26.95;;
11504;SDS011;5809;53.262;10.408;2023-05-23T07:02:43;43.20;;;28.50;;
11504;SDS011;5809;53.262;10.408;2023-05-23T07:05:12;41.58;;;29.10;;
11504;SDS011;5809;53.262;10.408;2023-05-23T07:07:40;40.97;;;28.05;;
11504;SDS011;5809;53.262;10.408;2023-05-23T07:10:07;41.75;;;28.60;;
11504;SDS011;5809;53.262;10.408;2023-05-23T07:12:36;41.53;;;28.63;;
11504;SDS011;5809;53.262;10.408;2023-05-23T07:15:03;40.55;;;28.92;;
11504;SDS011;5809;53.262;10.408;2023-05-23T07:17:31;38.05;;;28.15;;
11504;SDS011;5809;53.262;10.408;2023-05-23T07:20:00;44.17;;;29.60;;
11504;SDS011;5809;53.262;10.408;2023-05-23T07:22:28;39.22;;;29.48;;
11504;SDS011;5809;53.262;10.408;2023-05-23T07:24:55;47.58;;;31.75;;
11504;SDS011;5809;53.262;10.408;2023-05-23T07:27:22;48.60;;;34.72;;
11504;SDS011;5809;53.262;10.408;2023-05-23T07:29:51;45.42;;;32.10;;
11504;SDS011;5809;53.262;10.408;2023-05-23T07:32:18;49.50;;;34.65;;
11504;SDS011;5809;53.262;10.408;2023-05-23T07:34:44;58.25;;;41.53;;
11504;SDS011;5809;53.262;10.408;2023-05-23T07:37:11;50.78;;;36.63;;
11504;SDS011;5809;53.262;10.408;2023-05-23T07:39:40;49.75;;;35.15;;
11504;SDS011;5809;53.262;10.408;2023-05-23T07:42:07;46.63;;;32.95;;
11504;SDS011;5809;53.262;10.408;2023-05-23T07:44:34;45.30;;;33.38;;
11504;SDS011;5809;53.262;10.408;2023-05-23T07:47:02;44.05;;;32.50;;
11504;SDS011;5809;53.262;10.408;2023-05-23T07:49:30;51.35;;;33.97;;
11504;SDS011;5809;53.262;10.408;2023-05-23T07:51:57;47.83;;;35.13;;
11504;SDS011;5809;53.262;10.408;2023-05-23T07:54:23;47.10;;;33.33;;
11504;SDS011;5809;53.262;10.408;2023-05-23T07:56:51;45.60;;;32.55;;
11504;SDS011;5809;53.262;10.408;2023-05-23T07:59:18;43.08;;;31.38;;
11504;SDS011;5809;53.262;10.408;2023-05-23T08:01:46;42.38;;;31.40;;
11504;SDS011;5809;53.262;10.408;2023-05-23T08:04:15;41.40;;;30.08;;
11504;SDS011;5809;53.262;10.408;2023-05-23T08:06:42;36.78;;;29.00;;
11504;SDS011;5809;53.262;10.408;2023-05-23T08:09:11;34.03;;;28.05;;
11504;SDS011;5809;53.262;10.408;2023-05-23T08:11:38;34.25;;;26.98;;
11504;SDS011;5809;53.262;10.408;2023-05-23T08:14:05;33.90;;;26.63;;
11504;SDS011;5809;53.262;10.408;2023-05-23T08:16:32;33.70;;;25.65;;
11504;SDS011;5809;53.262;10.408;2023-05-23T08:19:00;25.13;;;21.52;;
11504;SDS011;5809;53.262;10.408;2023-05-23T08:21:28;21.75;;;19.40;;
11504;SDS011;5809;53.262;10.408;2023-05-23T08:23:56;23.25;;;20.33;;
11504;SDS011;5809;53.262;10.408;2023-05-23T08:26:23;21.92;;;19.60;;
11504;SDS011;5809;53.262;10.408;2023-05-23T08:28:51;25.17;;;22.52;;
11504;SDS011;5809;53.262;10.408;2023-05-23T08:31:18;29.05;;;24.55;;
11504;SDS011;5809;53.262;10.408;2023-05-23T08:33:45;28.38;;;25.25;;
11504;SDS011;5809;53.262;10.408;2023-05-23T08:36:12;29.75;;;26.38;;
11504;SDS011;5809;53.262;10.408;2023-05-23T08:38:41;32.65;;;28.65;;
11504;SDS011;5809;53.262;10.408;2023-05-23T08:41:10;28.77;;;25.83;;
11504;SDS011;5809;53.262;10.408;2023-05-23T08:43:41;27.55;;;24.58;;
11504;SDS011;5809;53.262;10.408;2023-05-23T08:46:08;29.05;;;26.15;;
11504;SDS011;5809;53.262;10.408;2023-05-23T08:48:35;26.50;;;23.80;;
11504;SDS011;5809;53.262;10.408;2023-05-23T08:51:04;27.25;;;24.05;;
11504;SDS011;5809;53.262;10.408;2023-05-23T08:53:33;29.15;;;26.00;;
11504;SDS011;5809;53.262;10.408;2023-05-23T08:56:04;30.17;;;26.80;;
11504;SDS011;5809;53.262;10.408;2023-05-23T08:58:31;25.77;;;23.13;;
11504;SDS011;5809;53.262;10.408;2023-05-23T09:01:00;24.05;;;21.42;;
11504;SDS011;5809;53.262;10.408;2023-05-23T09:03:27;24.20;;;21.05;;
11504;SDS011;5809;53.262;10.408;2023-05-23T09:05:55;18.95;;;17.05;;
11504;SDS011;5809;53.262;10.408;2023-05-23T09:08:23;14.57;;;13.18;;
11504;SDS011;5809;53.262;10.408;2023-05-23T09:10:50;17.02;;;13.68;;
11504;SDS011;5809;53.262;10.408;2023-05-23T09:13:18;15.75;;;13.50;;
11504;SDS011;5809;53.262;10.408;2023-05-23T09:15:55;15.38;;;12.43;;
11504;SDS011;5809;53.262;10.408;2023-05-23T09:18:24;14.90;;;12.00;;
11504;SDS011;5809;53.262;10.408;2023-05-23T09:20:51;12.90;;;11.60;;
11504;SDS011;5809;53.262;10.408;2023-05-23T09:23:18;12.00;;;10.48;;
11504;SDS011;5809;53.262;10.408;2023-05-23T09:25:45;12.77;;;11.25;;
11504;SDS011;5809;53.262;10.408;2023-05-23T09:28:13;12.60;;;11.40;;
11504;SDS011;5809;53.262;10.408;2023-05-23T09:30:41;11.75;;;10.55;;
11504;SDS011;5809;53.262;10.408;2023-05-23T09:33:08;12.32;;;9.77;;
11504;SDS011;5809;53.262;10.408;2023-05-23T09:35:36;11.45;;;10.35;;
11504;SDS011;5809;53.262;10.408;2023-05-23T09:38:09;11.05;;;9.75;;
11504;SDS011;5809;53.262;10.408;2023-05-23T09:40:36;11.05;;;8.80;;
11504;SDS011;5809;53.262;10.408;2023-05-23T09:43:09;9.38;;;8.48;;
11504;SDS011;5809;53.262;10.408;2023-05-23T09:45:36;9.95;;;8.23;;
11504;SDS011;5809;53.262;10.408;2023-05-23T09:48:06;8.88;;;8.00;;
11504;SDS011;5809;53.262;10.408;2023-05-23T09:50:38;9.57;;;7.55;;
11504;SDS011;5809;53.262;10.408;2023-05-23T09:53:05;8.68;;;7.47;;
11504;SDS011;5809;53.262;10.408;2023-05-23T09:55:32;7.75;;;6.95;;
11504;SDS011;5809;53.262;10.408;2023-05-23T09:57:59;11.23;;;8.00;;
11504;SDS011;5809;53.262;10.408;2023-05-23T10:00:26;8.60;;;7.32;;
11504;SDS011;5809;53.262;10.408;2023-05-23T10:02:54;8.30;;;7.50;;
11504;SDS011;5809;53.262;10.408;2023-05-23T10:05:30;10.68;;;7.53;;
11504;SDS011;5809;53.262;10.408;2023-05-23T10:08:00;8.70;;;7.80;;
11504;SDS011;5809;53.262;10.408;2023-05-23T10:10:34;10.18;;;9.18;;
11504;SDS011;5809;53.262;10.408;2023-05-23T10:13:37;12.88;;;11.57;;
11504;SDS011;5809;53.262;10.408;2023-05-23T10:16:08;15.30;;;13.60;;
11504;SDS011;5809;53.262;10.408;2023-05-23T10:18:42;18.10;;;13.95;;
11504;SDS011;5809;53.262;10.408;2023-05-23T10:21:12;16.73;;;14.05;;
11504;SDS011;5809;53.262;10.408;2023-05-23T10:23:44;16.05;;;13.65;;
11504;SDS011;5809;53.262;10.408;2023-05-23T10:26:13;15.63;;;13.95;;
11504;SDS011;5809;53.262;10.408;2023-05-23T10:28:41;18.33;;;15.82;;
11504;SDS011;5809;53.262;10.408;2023-05-23T10:31:11;19.33;;;16.25;;
11504;SDS011;5809;53.262;10.408;2023-05-23T10:33:40;22.30;;;16.45;;
11504;SDS011;5809;53.262;10.408;2023-05-23T10:36:17;21.67;;;17.40;;
11504;SDS011;5809;53.262;10.408;2023-05-23T10:38:50;20.65;;;16.88;;
11504;SDS011;5809;53.262;10.408;2023-05-23T10:41:22;17.00;;;15.23;;
11504;SDS011;5809;53.262;10.408;2023-05-23T10:43:54;20.77;;;17.02;;
11504;SDS011;5809;53.262;10.408;2023-05-23T10:46:42;20.00;;;16.08;;
11504;SDS011;5809;53.262;10.408;2023-05-23T10:49:16;19.45;;;15.18;;
11504;SDS011;5809;53.262;10.408;2023-05-23T10:51:44;19.88;;;13.45;;
11504;SDS011;5809;53.262;10.408;2023-05-23T10:54:14;16.50;;;13.07;;
11504;SDS011;5809;53.262;10.408;2023-05-23T10:56:43;19.05;;;12.73;;
11504;SDS011;5809;53.262;10.408;2023-05-23T10:59:18;18.45;;;14.18;;
11504;SDS011;5809;53.262;10.408;2023-05-23T11:01:49;15.52;;;10.63;;
11504;SDS011;5809;53.262;10.408;2023-05-23T11:04:23;11.50;;;9.95;;
11504;SDS011;5809;53.262;10.408;2023-05-23T11:06:52;15.18;;;11.00;;
11504;SDS011;5809;53.262;10.408;2023-05-23T11:09:20;15.13;;;11.60;;
11504;SDS011;5809;53.262;10.408;2023-05-23T11:11:53;18.10;;;13.85;;
11504;SDS011;5809;53.262;10.408;2023-05-23T11:14:33;20.85;;;14.88;;
11504;SDS011;5809;53.262;10.408;2023-05-23T11:17:15;20.00;;;15.98;;
11504;SDS011;5809;53.262;10.408;2023-05-23T11:19:54;20.75;;;15.20;;
11504;SDS011;5809;53.262;10.408;2023-05-23T11:22:27;21.02;;;13.10;;
11504;SDS011;5809;53.262;10.408;2023-05-23T11:24:55;19.02;;;11.18;;
11504;SDS011;5809;53.262;10.408;2023-05-23T11:27:26;15.45;;;11.23;;
11504;SDS011;5809;53.262;10.408;2023-05-23T11:29:56;17.15;;;10.68;;
11504;SDS011;5809;53.262;10.408;2023-05-23T11:32:26;20.70;;;12.57;;
11504;SDS011;5809;53.262;10.408;2023-05-23T11:34:54;16.33;;;11.82;;
11504;SDS011;5809;53.262;10.408;2023-05-23T11:37:24;15.70;;;12.57;;
11504;SDS011;5809;53.262;10.408;2023-05-23T11:39:53;19.75;;;13.85;;
11504;SDS011;5809;53.262;10.408;2023-05-23T11:42:20;18.38;;;13.02;;
11504;SDS011;5809;53.262;10.408;2023-05-23T11:44:48;18.70;;;13.35;;
11504;SDS011;5809;53.262;10.408;2023-05-23T11:47:15;19.58;;;12.35;;
11504;SDS011;5809;53.262;10.408;2023-05-23T11:49:43;15.73;;;10.63;;
11504;SDS011;5809;53.262;10.408;2023-05-23T11:52:11;16.00;;;10.80;;
11504;SDS011;5809;53.262;10.408;2023-05-23T11:54:39;18.52;;;10.60;;
11504;SDS011;5809;53.262;10.408;2023-05-23T11:57:08;18.67;;;10.68;;
11504;SDS011;5809;53.262;10.408;2023-05-23T11:59:35;23.67;;;11.00;;
11504;SDS011;5809;53.262;10.408;2023-05-23T12:02:04;13.85;;;9.52;;
11504;SDS011;5809;53.262;10.408;2023-05-23T12:04:33;21.55;;;9.30;;
11504;SDS011;5809;53.262;10.408;2023-05-23T12:07:03;20.35;;;10.02;;
11504;SDS011;5809;53.262;10.408;2023-05-23T12:09:31;16.33;;;10.30;;
11504;SDS011;5809;53.262;10.408;2023-05-23T12:12:07;15.68;;;8.32;;
11504;SDS011;5809;53.262;10.408;2023-05-23T12:14:35;13.85;;;8.20;;
11504;SDS011;5809;53.262;10.408;2023-05-23T12:17:08;8.88;;;6.70;;
11504;SDS011;5809;53.262;10.408;2023-05-23T12:19:36;12.90;;;6.82;;
11504;SDS011;5809;53.262;10.408;2023-05-23T12:22:04;15.50;;;6.32;;
11504;SDS011;5809;53.262;10.408;2023-05-23T12:24:32;11.27;;;6.30;;
11504;SDS011;5809;53.262;10.408;2023-05-23T12:27:00;15.88;;;6.32;;
11504;SDS011;5809;53.262;10.408;2023-05-23T12:29:29;15.60;;;5.53;;
11504;SDS011;5809;53.262;10.408;2023-05-23T12:31:57;12.43;;;5.78;;
11504;SDS011;5809;53.262;10.408;2023-05-23T12:34:25;11.68;;;5.38;;
11504;SDS011;5809;53.262;10.408;2023-05-23T12:36:53;12.85;;;4.93;;
11504;SDS011;5809;53.262;10.408;2023-05-23T12:39:23;11.68;;;4.50;;
11504;SDS011;5809;53.262;10.408;2023-05-23T12:41:51;9.98;;;4.20;;
11504;SDS011;5809;53.262;10.408;2023-05-23T12:44:20;10.32;;;4.63;;
11504;SDS011;5809;53.262;10.408;2023-05-23T12:46:48;9.98;;;4.13;;
11504;SDS011;5809;53.262;10.408;2023-05-23T12:49:15;11.80;;;4.30;;
11504;SDS011;5809;53.262;10.408;2023-05-23T12:51:42;11.82;;;4.35;;
11504;SDS011;5809;53.262;10.408;2023-05-23T12:54:09;10.15;;;4.35;;
11504;SDS011;5809;53.262;10.408;2023-05-23T12:56:36;13.20;;;4.68;;
11504;SDS011;5809;53.262;10.408;2023-05-23T12:59:03;19.52;;;5.38;;
11504;SDS011;5809;53.262;10.408;2023-05-23T13:01:30;14.57;;;4.95;;
11504;SDS011;5809;53.262;10.408;2023-05-23T13:04:00;13.10;;;4.78;;
11504;SDS011;5809;53.262;10.408;2023-05-23T13:06:27;9.65;;;4.10;;
11504;SDS011;5809;53.262;10.408;2023-05-23T13:08:54;12.20;;;4.90;;
11504;SDS011;5809;53.262;10.408;2023-05-23T13:11:21;11.80;;;4.70;;
11504;SDS011;5809;53.262;10.408;2023-05-23T13:13:48;12.82;;;4.90;;
11504;SDS011;5809;53.262;10.408;2023-05-23T13:16:15;14.43;;;4.93;;
11504;SDS011;5809;53.262;10.408;2023-05-23T13:18:43;14.70;;;4.28;;
11504;SDS011;5809;53.262;10.408;2023-05-23T13:21:11;12.35;;;4.72;;
11504;SDS011;5809;53.262;10.408;2023-05-23T13:23:38;14.73;;;5.13;;
11504;SDS011;5809;53.262;10.408;2023-05-23T13:26:05;15.00;;;5.13;;
11504;SDS011;5809;53.262;10.408;2023-05-23T13:28:32;17.25;;;4.75;;
11504;SDS011;5809;53.262;10.408;2023-05-23T13:30:59;14.38;;;4.25;;
11504;SDS011;5809;53.262;10.408;2023-05-23T13:33:27;11.38;;;4.65;;
11504;SDS011;5809;53.262;10.408;2023-05-23T13:35:55;13.60;;;4.28;;
11504;SDS011;5809;53.262;10.408;2023-05-23T13:38:23;9.25;;;4.45;;
11504;SDS011;5809;53.262;10.408;2023-05-23T13:40:51;9.43;;;4.28;;
11504;SDS011;5809;53.262;10.408;2023-05-23T13:43:19;13.45;;;4.40;;
11504;SDS011;5809;53.262;10.408;2023-05-23T13:45:46;12.85;;;4.50;;
11504;SDS011;5809;53.262;10.408;2023-05-23T13:48:13;14.25;;;4.68;;
11504;SDS011;5809;53.262;10.408;2023-05-23T13:50:40;10.18;;;4.43;;
11504;SDS011;5809;53.262;10.408;2023-05-23T13:53:08;9.77;;;4.28;;
11504;SDS011;5809;53.262;10.408;2023-05-23T13:55:40;10.93;;;4.40;;
11504;SDS011;5809;53.262;10.408;2023-05-23T13:58:09;13.88;;;4.60;;
11504;SDS011;5809;53.262;10.408;2023-05-23T14:00:36;11.90;;;4.10;;
11504;SDS011;5809;53.262;10.408;2023-05-23T14:03:03;11.73;;;4.45;;
11504;SDS011;5809;53.262;10.408;2023-05-23T14:05:30;8.60;;;4.00;;
11504;SDS011;5809;53.262;10.408;2023-05-23T14:07:57;12.43;;;4.72;;
11504;SDS011;5809;53.262;10.408;2023-05-23T14:10:24;11.82;;;4.20;;
11504;SDS011;5809;53.262;10.408;2023-05-23T14:12:52;10.45;;;4.43;;
11504;SDS011;5809;53.262;10.408;2023-05-23T14:15:19;14.30;;;5.10;;
11504;SDS011;5809;53.262;10.408;2023-05-23T14:17:46;9.02;;;4.60;;
11504;SDS011;5809;53.262;10.408;2023-05-23T14:20:19;12.48;;;4.18;;
11504;SDS011;5809;53.262;10.408;2023-05-23T14:22:46;11.43;;;4.10;;
11504;SDS011;5809;53.262;10.408;2023-05-23T14:25:13;12.57;;;3.83;;
11504;SDS011;5809;53.262;10.408;2023-05-23T14:27:40;13.07;;;4.22;;
11504;SDS011;5809;53.262;10.408;2023-05-23T14:30:09;9.90;;;4.20;;
11504;SDS011;5809;53.262;10.408;2023-05-23T14:32:36;14.45;;;3.95;;